Terminal Aerodrome Forecast
Issued by NWS

Home | Current Version | Previous Version | Text Only | Print | Product List | Glossary On
Versions: 1 2 3 4 5 6 7 8 9 10 11 12 13 14 15 16 17 18 19 20 21
961
FTUS42 KGSP 271728
TAFGMU
TAF
KGMU 271728Z 2718/2818 23012KT P6SM SCT250
     FM280300 26004KT P6SM BKN150 PROB30 2803/2807 4SM -TSRA
      OVC040CB
     FM281500 22010KT P6SM BKN140 PROB30 2815/2818 4SM -TSRA
      OVC040CB=

USA.gov is the U.S. government's official web portal to all federal, state and local government web resources and services.